Time;durP1;ratioP1;P1;durP2;ratioP2;P2;SDS_P1;SDS_P2;PMS_P1;PMS_P2;Temp;Humidity;BMP_temperature;BMP_pressure;BME280_temperature;BME280_humidity;BME280_pressure;Samples;Min_cycle;Max_cycle;Signal;HPM_P1;HPM_P2
2022/06/03 00:00:50;;;;;;;6.43;5.13;;;9.90;99.90;;;;;;4976992;28;20124;-76
2022/06/03 00:03:37;;;;;;;8.65;4.43;;;9.90;99.90;;;;;;5005299;28;20129;-76
2022/06/03 00:06:49;;;;;;;8.73;4.32;;;9.90;99.90;;;;;;4989248;28;20046;-76
2022/06/03 00:10:02;;;;;;;6.85;4.53;;;9.90;99.90;;;;;;4973188;28;20091;-76
2022/06/03 00:12:34;;;;;;;7.03;4.25;;;9.80;99.90;;;;;;4937865;28;20046;-76
2022/06/03 00:15:14;;;;;;;6.53;4.13;;;9.80;99.90;;;;;;4988218;28;20037;-76
2022/06/03 00:17:49;;;;;;;5.30;4.38;;;9.70;99.90;;;;;;5005152;28;20300;-76
2022/06/03 00:20:28;;;;;;;5.68;4.35;;;9.70;99.90;;;;;;4989379;28;20592;-75
2022/06/03 00:23:23;;;;;;;5.60;4.28;;;9.70;99.90;;;;;;4990956;28;20506;-76
2022/06/03 00:26:16;;;;;;;7.88;4.57;;;9.60;99.90;;;;;;4964821;28;20049;-76
2022/06/03 00:29:03;;;;;;;7.75;4.70;;;9.60;99.90;;;;;;4973246;28;20077;-76
2022/06/03 00:31:42;;;;;;;7.68;4.57;;;9.50;99.90;;;;;;5000292;28;20042;-76
2022/06/03 00:34:19;;;;;;;9.82;5.20;;;9.50;99.90;;;;;;4986577;28;20053;-76
2022/06/03 00:37:18;;;;;;;6.68;5.10;;;9.40;99.90;;;;;;4988847;28;20045;-76
2022/06/03 00:40:18;;;;;;;8.32;4.60;;;9.40;99.90;;;;;;5005751;28;20339;-76
2022/06/03 00:43:10;;;;;;;8.88;5.03;;;9.40;99.90;;;;;;4988933;28;20213;-76
2022/06/03 00:46:01;;;;;;;9.60;5.03;;;9.40;99.90;;;;;;4952408;28;20049;-77
2022/06/03 00:48:47;;;;;;;5.75;4.63;;;9.40;99.90;;;;;;4989552;28;20054;-76
2022/06/03 00:51:31;;;;;;;6.47;5.20;;;9.40;99.90;;;;;;4988147;28;20050;-76
2022/06/03 00:54:02;;;;;;;8.65;5.40;;;9.30;99.90;;;;;;4989910;28;20037;-77
2022/06/03 00:56:52;;;;;;;5.35;4.68;;;9.30;99.90;;;;;;4984617;28;20041;-76
2022/06/03 00:59:36;;;;;;;8.13;4.88;;;9.20;99.90;;;;;;4971531;28;20043;-76
2022/06/03 01:02:25;;;;;;;6.20;4.43;;;9.20;99.90;;;;;;4991561;28;20038;-76
2022/06/03 01:05:48;;;;;;;8.05;4.55;;;9.20;99.90;;;;;;4974255;28;20472;-75
2022/06/03 01:08:55;;;;;;;8.23;4.77;;;9.20;99.90;;;;;;4906969;29;20044;-76
2022/06/03 01:11:21;;;;;;;9.68;5.85;;;9.10;99.90;;;;;;4891562;29;20466;-76
2022/06/03 01:13:55;;;;;;;6.90;5.20;;;9.10;99.90;;;;;;4961429;28;20045;-76
2022/06/03 01:16:33;;;;;;;12.75;5.75;;;9.10;99.90;;;;;;4986910;28;20129;-76
2022/06/03 01:19:02;;;;;;;6.35;4.95;;;9.10;99.90;;;;;;4987809;28;20042;-76
2022/06/03 01:21:49;;;;;;;5.68;4.78;;;9.10;99.90;;;;;;4970062;28;20088;-77
2022/06/03 01:24:29;;;;;;;7.47;5.95;;;9.00;99.90;;;;;;4989252;28;20121;-76
2022/06/03 01:27:25;;;;;;;8.75;5.72;;;9.00;99.90;;;;;;4986960;28;20487;-76
2022/06/03 01:30:24;;;;;;;9.55;5.40;;;8.90;99.90;;;;;;4989547;28;20499;-76
2022/06/03 01:33:08;;;;;;;8.05;5.18;;;8.90;99.90;;;;;;4987903;28;20049;-76
2022/06/03 01:35:54;;;;;;;9.35;5.75;;;8.90;99.90;;;;;;4968560;28;20068;-76
2022/06/03 01:39:01;;;;;;;6.82;4.82;;;8.80;99.90;;;;;;4987063;28;20108;-76
2022/06/03 01:41:46;;;;;;;7.20;5.15;;;8.80;99.90;;;;;;4888444;29;20529;-76
2022/06/03 01:44:27;;;;;;;10.68;5.80;;;8.80;99.90;;;;;;4875130;29;20051;-76
2022/06/03 01:47:17;;;;;;;9.40;5.32;;;8.80;99.90;;;;;;4942331;28;20050;-76
2022/06/03 01:50:04;;;;;;;10.20;6.43;;;8.70;99.90;;;;;;4968423;28;20060;-75
2022/06/03 01:52:58;;;;;;;8.63;5.93;;;8.70;99.90;;;;;;4987443;28;20132;-76
2022/06/03 01:56:21;;;;;;;6.85;5.38;;;8.70;99.90;;;;;;4972364;28;20053;-76
2022/06/03 01:59:05;;;;;;;10.07;6.10;;;8.60;99.90;;;;;;4886302;29;20048;-77
2022/06/03 02:01:30;;;;;;;10.63;5.70;;;8.60;99.90;;;;;;4890838;29;20495;-76
2022/06/03 02:04:23;;;;;;;9.43;5.97;;;8.60;99.90;;;;;;4939631;28;20116;-76
2022/06/03 02:07:08;;;;;;;;;;;8.60;99.90;;;;;;4986802;28;20123;-77
2022/06/03 02:10:11;;;;;;;7.72;5.93;;;8.60;99.90;;;;;;4988479;28;19925;-76
2022/06/03 02:13:01;;;;;;;9.82;6.60;;;8.60;99.90;;;;;;4928385;28;20504;-76
2022/06/03 02:15:46;;;;;;;8.77;6.13;;;8.60;99.90;;;;;;4984605;28;20073;-76
2022/06/03 02:18:30;;;;;;;8.50;5.80;;;8.60;99.90;;;;;;5004150;28;20042;-76
2022/06/03 02:21:16;;;;;;;9.73;5.78;;;8.60;99.90;;;;;;4983642;28;21972;-76
2022/06/03 02:24:07;;;;;;;8.63;6.03;;;8.60;99.90;;;;;;4988653;28;20091;-77
2022/06/03 02:26:38;;;;;;;9.07;5.68;;;8.50;99.90;;;;;;4967772;28;20034;-76
2022/06/03 02:32:50;;;;;;;7.65;6.00;;;8.50;99.90;;;;;;4989653;28;20034;-77
2022/06/03 02:35:48;;;;;;;12.07;6.78;;;8.50;99.90;;;;;;5001757;28;20046;-77
2022/06/03 02:38:38;;;;;;;9.57;5.80;;;8.40;99.90;;;;;;4987460;28;20061;-77
2022/06/03 02:41:19;;;;;;;10.73;5.70;;;8.40;99.90;;;;;;5004278;28;20151;-76
2022/06/03 02:43:57;;;;;;;9.13;5.70;;;8.40;99.90;;;;;;4985228;28;20037;-76
2022/06/03 02:46:45;;;;;;;9.73;6.22;;;8.40;99.90;;;;;;4988238;28;20089;-76
2022/06/03 02:49:39;;;;;;;9.52;6.45;;;8.30;99.90;;;;;;4969429;28;20032;-76
2022/06/03 02:52:14;;;;;;;11.18;6.30;;;8.30;99.90;;;;;;5002545;28;20051;-76
2022/06/03 02:54:58;;;;;;;10.40;6.68;;;8.30;99.90;;;;;;4972562;28;20045;-76
2022/06/03 02:57:39;;;;;;;7.15;6.15;;;8.30;99.90;;;;;;4984132;28;20045;-76
2022/06/03 03:00:31;;;;;;;9.35;6.43;;;8.30;99.90;;;;;;4985230;28;20042;-77
2022/06/03 03:03:41;;;;;;;9.52;6.55;;;8.30;99.90;;;;;;4985443;28;20038;-76
2022/06/03 03:06:16;;;;;;;10.07;6.28;;;8.20;99.90;;;;;;4983111;28;20120;-76
2022/06/03 03:08:51;;;;;;;10.30;6.63;;;8.20;99.90;;;;;;4984956;28;20129;-77
2022/06/03 03:11:40;;;;;;;9.68;7.30;;;8.20;99.90;;;;;;4986137;28;20030;-77
2022/06/03 03:14:24;;;;;;;11.55;7.07;;;8.20;99.90;;;;;;4970434;28;20046;-76
2022/06/03 03:17:28;;;;;;;10.13;6.22;;;8.20;99.90;;;;;;4986499;28;20049;-76
2022/06/03 03:20:14;;;;;;;11.57;7.00;;;8.20;99.90;;;;;;4971072;28;20092;-76
2022/06/03 03:22:52;;;;;;;10.55;7.32;;;8.10;99.90;;;;;;4986478;28;20041;-76
2022/06/03 03:25:21;;;;;;;13.20;7.80;;;8.10;99.90;;;;;;4985552;28;20565;-76
2022/06/03 03:28:15;;;;;;;13.38;6.75;;;8.10;99.90;;;;;;4986994;28;20057;-77
2022/06/03 03:30:52;;;;;;;15.70;7.65;;;8.10;99.90;;;;;;4985504;28;20034;-77
2022/06/03 03:33:36;;;;;;;11.93;7.55;;;8.10;99.90;;;;;;4971384;28;20026;-77
2022/06/03 03:36:16;;;;;;;13.00;7.50;;;8.10;99.90;;;;;;4984633;28;20470;-77
2022/06/03 03:39:13;;;;;;;10.07;7.15;;;8.00;99.90;;;;;;4982634;28;20045;-76
2022/06/03 03:42:07;;;;;;;13.55;7.03;;;8.10;99.90;;;;;;4983111;28;20045;-76
2022/06/03 03:44:42;;;;;;;15.20;7.68;;;8.00;99.90;;;;;;4985863;28;20087;-76
2022/06/03 03:47:53;;;;;;;12.05;7.57;;;8.00;99.90;;;;;;4984615;28;20053;-76
2022/06/03 03:50:40;;;;;;;19.85;7.80;;;8.10;99.90;;;;;;4930680;28;20653;-77
2022/06/03 03:53:37;;;;;;;11.00;7.85;;;8.00;99.90;;;;;;4971766;28;20119;-77
2022/06/03 03:56:57;;;;;;;11.43;7.70;;;8.10;99.90;;;;;;4980177;28;20149;-77
2022/06/03 03:59:41;;;;;;;10.90;7.95;;;8.10;99.90;;;;;;4936680;28;20138;-77
2022/06/03 04:02:35;;;;;;;12.95;8.05;;;8.10;99.90;;;;;;4965381;28;20137;-77
2022/06/03 04:05:27;;;;;;;10.15;7.18;;;8.10;99.90;;;;;;5007001;28;20456;-77
2022/06/03 04:08:31;;;;;;;12.73;7.37;;;8.10;99.90;;;;;;4971230;28;20064;-77
2022/06/03 04:11:06;;;;;;;11.15;7.60;;;8.10;99.90;;;;;;4972675;28;20041;-76
2022/06/03 04:14:04;;;;;;;12.18;7.70;;;8.10;99.90;;;;;;4990585;28;20034;-76
2022/06/03 04:16:51;;;;;;;13.80;8.07;;;8.10;99.90;;;;;;4986869;28;20050;-76
2022/06/03 04:19:38;;;;;;;13.20;7.80;;;8.10;99.90;;;;;;4987463;28;20676;-77
2022/06/03 04:22:07;;;;;;;12.20;8.07;;;8.20;99.90;;;;;;4972093;28;20069;-77
2022/06/03 04:25:18;;;;;;;13.50;8.85;;;8.20;99.90;;;;;;4990017;28;20397;-77
2022/06/03 04:28:05;;;;;;;14.00;8.27;;;8.20;99.90;;;;;;4960160;28;20407;-77
2022/06/03 04:30:50;;;;;;;14.93;7.45;;;8.30;99.90;;;;;;4975591;28;20502;-77
2022/06/03 04:33:18;;;;;;;15.85;8.98;;;8.30;99.90;;;;;;4973275;28;20052;-77
2022/06/03 04:35:52;;;;;;;14.50;8.82;;;8.40;99.90;;;;;;5006240;28;20034;-76
2022/06/03 04:38:55;;;;;;;10.52;8.55;;;8.40;99.90;;;;;;4972409;28;20033;-77
2022/06/03 04:41:36;;;;;;;11.88;8.05;;;8.50;99.90;;;;;;4989023;28;20058;-77
2022/06/03 04:44:21;;;;;;;16.38;8.95;;;8.50;99.90;;;;;;4985784;28;20084;-76
2022/06/03 04:47:08;;;;;;;13.40;9.07;;;8.50;99.90;;;;;;4972588;28;20059;-77
2022/06/03 04:49:55;;;;;;;13.50;8.55;;;8.60;99.90;;;;;;5003250;28;20047;-77
2022/06/03 04:52:36;;;;;;;17.73;8.93;;;8.60;99.90;;;;;;4986193;28;20048;-76
2022/06/03 04:55:23;;;;;;;11.05;8.30;;;8.70;99.90;;;;;;5005379;28;20046;-77
2022/06/03 04:58:15;;;;;;;14.00;8.43;;;8.70;99.90;;;;;;4997556;28;20053;-76
2022/06/03 05:01:02;;;;;;;10.50;8.45;;;8.80;99.90;;;;;;4986912;28;20142;-77
2022/06/03 05:03:39;;;;;;;14.30;8.95;;;8.80;99.90;;;;;;4963877;28;20040;-76
2022/06/03 05:06:33;;;;;;;11.82;9.43;;;8.90;99.90;;;;;;4972596;28;20056;-76
2022/06/03 05:09:41;;;;;;;17.65;10.45;;;9.00;99.90;;;;;;4986326;28;20068;-76
2022/06/03 05:12:41;;;;;;;15.48;10.32;;;9.00;99.90;;;;;;4987960;28;20052;-77
2022/06/03 05:15:31;;;;;;;18.05;10.20;;;9.10;99.90;;;;;;4988270;28;20081;-77
2022/06/03 05:18:24;;;;;;;14.55;10.85;;;9.20;99.90;;;;;;4988450;28;20129;-78
2022/06/03 05:21:22;;;;;;;17.67;11.20;;;9.30;99.90;;;;;;4986658;28;20053;-76
2022/06/03 05:23:58;;;;;;;16.42;11.00;;;9.40;99.90;;;;;;4971504;28;20042;-76
2022/06/03 05:26:43;;;;;;;19.02;11.65;;;9.50;99.90;;;;;;4987173;28;20038;-77
2022/06/03 05:29:26;;;;;;;14.15;10.65;;;9.60;99.90;;;;;;4975308;28;20070;-77
2022/06/03 05:32:19;;;;;;;17.33;12.57;;;9.70;99.90;;;;;;4979095;28;20100;-76
2022/06/03 05:34:45;;;;;;;16.73;11.48;;;9.90;99.90;;;;;;4981144;28;20033;-76
2022/06/03 05:37:34;;;;;;;18.58;12.13;;;10.00;99.90;;;;;;4980142;28;20049;-76
2022/06/03 05:40:39;;;;;;;18.50;12.32;;;10.10;99.90;;;;;;4936748;28;1251107;-78
2022/06/03 05:43:28;;;;;;;18.60;11.90;;;10.30;99.90;;;;;;4965892;28;20650;-78
2022/06/03 05:46:00;;;;;;;15.07;11.27;;;10.40;99.90;;;;;;4967557;28;20042;-78
2022/06/03 05:48:44;;;;;;;13.82;10.85;;;10.50;99.90;;;;;;4966573;28;20034;-78
2022/06/03 05:51:46;;;;;;;16.85;11.10;;;10.60;99.90;;;;;;4967844;28;20048;-78
2022/06/03 05:54:17;;;;;;;17.23;10.05;;;10.70;99.90;;;;;;4969092;28;20085;-78
2022/06/03 05:56:56;;;;;;;13.95;10.25;;;10.80;99.90;;;;;;4983452;28;20466;-78
2022/06/03 05:59:52;;;;;;;13.93;10.02;;;10.90;99.90;;;;;;4981730;28;20551;-78
2022/06/03 06:02:40;;;;;;;14.13;10.13;;;11.10;99.90;;;;;;4966294;28;20045;-78
2022/06/03 06:05:25;;;;;;;16.85;10.55;;;11.20;99.90;;;;;;4982070;28;20161;-78
2022/06/03 06:08:03;;;;;;;14.50;9.82;;;11.20;99.90;;;;;;4966853;28;20041;-78
2022/06/03 06:10:39;;;;;;;17.63;10.68;;;11.30;99.90;;;;;;4983468;28;20042;-78
2022/06/03 06:13:11;;;;;;;15.35;10.73;;;11.40;99.90;;;;;;4981406;28;20038;-78
2022/06/03 06:16:02;;;;;;;15.38;10.10;;;11.50;99.90;;;;;;4979839;28;20127;-78
2022/06/03 06:18:46;;;;;;;13.50;8.63;;;11.60;99.90;;;;;;4975550;28;20396;-77
2022/06/03 06:21:54;;;;;;;16.10;9.60;;;11.70;99.90;;;;;;4985549;28;20499;-76
2022/06/03 06:24:27;;;;;;;12.90;8.27;;;11.90;99.90;;;;;;4983975;28;20069;-81
2022/06/03 06:27:15;;;;;;;16.98;8.82;;;12.00;99.90;;;;;;4968076;28;20038;-76
2022/06/03 06:30:03;;;;;;;15.38;8.88;;;12.10;99.90;;;;;;4967545;28;20042;-75
2022/06/03 06:32:35;;;;;;;13.88;9.82;;;12.30;99.90;;;;;;4981590;28;20030;-75
2022/06/03 06:35:22;;;;;;;11.48;8.20;;;12.40;99.90;;;;;;4980729;28;20104;-75
2022/06/03 06:38:15;;;;;;;11.93;8.95;;;12.50;99.90;;;;;;4968764;28;20042;-75
2022/06/03 06:41:09;;;;;;;14.10;8.77;;;12.70;99.90;;;;;;4963867;28;20061;-76
2022/06/03 06:44:00;;;;;;;10.32;8.38;;;12.80;99.90;;;;;;4963696;28;20588;-76
2022/06/03 06:46:46;;;;;;;9.27;7.55;;;13.00;99.90;;;;;;4965225;28;20061;-76
2022/06/03 06:49:39;;;;;;;11.07;7.97;;;13.20;99.90;;;;;;4977414;28;20034;-76
2022/06/03 06:52:31;;;;;;;12.05;7.22;;;13.40;99.90;;;;;;4965220;28;20034;-76
2022/06/03 06:55:06;;;;;;;12.60;7.20;;;13.50;99.90;;;;;;4970153;28;20728;-76
2022/06/03 06:57:35;;;;;;;7.50;6.07;;;13.70;99.90;;;;;;4965607;28;20068;-76
2022/06/03 07:00:28;;;;;;;10.43;6.60;;;13.90;99.90;;;;;;4979254;28;20080;-76
2022/06/03 07:03:04;;;;;;;9.93;5.90;;;14.10;99.90;;;;;;4980339;28;20054;-76
2022/06/03 07:05:53;;;;;;;9.82;6.10;;;14.20;99.90;;;;;;4980617;28;20641;-76
2022/06/03 07:08:38;;;;;;;8.40;5.47;;;14.40;99.90;;;;;;4995312;28;20095;-76
2022/06/03 07:11:07;;;;;;;12.20;5.47;;;14.60;99.90;;;;;;4981685;28;20405;-75
2022/06/03 07:13:52;;;;;;;9.63;5.93;;;14.80;99.90;;;;;;4979567;28;20599;-76
2022/06/03 07:22:24;;;;;;;8.00;4.90;;;15.40;99.90;;;;;;4994339;28;20301;-76
2022/06/03 07:25:02;;;;;;;8.20;5.38;;;15.60;99.90;;;;;;4966216;28;20076;-76
2022/06/03 07:28:03;;;;;;;8.07;5.53;;;15.70;99.90;;;;;;4963857;28;20042;-75
2022/06/03 07:30:41;;;;;;;6.32;4.90;;;15.90;99.90;;;;;;4951459;28;20133;-75
2022/06/03 07:33:14;;;;;;;7.80;5.18;;;16.00;99.90;;;;;;4965404;28;20259;-76
2022/06/03 07:35:52;;;;;;;8.98;5.20;;;16.10;99.90;;;;;;4980605;28;20571;-75
2022/06/03 07:38:33;;;;;;;7.22;4.80;;;16.20;99.90;;;;;;4998119;28;20606;-75
2022/06/03 07:41:16;;;;;;;6.75;5.18;;;16.40;99.90;;;;;;4970021;28;20050;-76
2022/06/03 07:43:47;;;;;;;;;;;16.50;99.90;;;;;;4984309;28;20038;-73
2022/06/03 07:46:27;;;;;;;6.57;4.93;;;16.70;99.90;;;;;;4968591;28;19934;-76
2022/06/03 07:48:53;;;;;;;6.75;4.65;;;16.80;99.90;;;;;;4968192;28;20046;-75
2022/06/03 07:51:26;;;;;;;7.15;4.90;;;16.90;99.90;;;;;;4968040;28;20384;-76
2022/06/03 07:54:11;;;;;;;9.32;5.20;;;17.00;99.90;;;;;;4989938;28;20045;-75
2022/06/03 07:56:37;;;;;;;6.95;5.15;;;17.00;99.90;;;;;;4985859;28;20033;-75
2022/06/03 07:59:12;;;;;;;7.57;5.22;;;17.00;99.90;;;;;;4968464;28;20030;-73
2022/06/03 08:01:42;;;;;;;10.57;5.20;;;17.20;99.90;;;;;;4983712;28;20034;-72
2022/06/03 08:04:45;;;;;;;7.80;5.28;;;17.30;99.90;;;;;;4986471;28;20069;-73
2022/06/03 08:13:06;;;;;;;5.72;4.53;;;17.80;99.90;;;;;;4983499;28;20049;-75
2022/06/03 08:15:39;;;;;;;7.38;4.20;;;17.90;99.90;;;;;;4983171;28;20052;-74
2022/06/03 08:18:06;;;;;;;7.80;4.97;;;18.00;99.90;;;;;;4967718;28;20052;-76
2022/06/03 08:20:43;;;;;;;6.22;4.53;;;18.10;99.90;;;;;;4985091;28;20057;-75
2022/06/03 08:23:09;;;;;;;5.70;4.40;;;18.20;99.90;;;;;;4968838;28;20046;-76
2022/06/03 08:25:41;;;;;;;10.48;4.50;;;18.30;99.90;;;;;;4968652;28;20041;-75
2022/06/03 08:28:11;;;;;;;5.18;4.10;;;18.40;99.90;;;;;;4970341;28;20050;-75
2022/06/03 08:30:40;;;;;;;6.25;4.13;;;18.50;99.90;;;;;;4983351;28;20487;-76
2022/06/03 08:33:10;;;;;;;5.47;4.00;;;18.70;99.90;;;;;;4982923;28;20219;-75
2022/06/03 08:35:42;;;;;;;6.50;3.97;;;18.80;99.90;;;;;;4983242;28;20114;-74
2022/06/03 08:38:19;;;;;;;5.57;4.30;;;18.90;99.90;;;;;;4998555;28;20038;-74
2022/06/03 08:41:06;;;;;;;6.10;3.95;;;19.00;99.90;;;;;;4965955;28;20053;-73
2022/06/03 08:43:40;;;;;;;7.75;3.92;;;19.10;99.90;;;;;;4983447;28;20140;-73
2022/06/03 08:46:15;;;;;;;7.20;3.78;;;19.20;99.90;;;;;;4967881;28;20050;-73
2022/06/03 08:48:43;;;;;;;6.60;3.63;;;19.20;99.90;;;;;;4985443;28;20125;-74
2022/06/03 08:51:19;;;;;;;9.95;4.45;;;19.30;99.90;;;;;;4982026;28;20395;-74
2022/06/03 08:53:58;;;;;;;6.22;4.15;;;19.40;99.90;;;;;;4982588;28;20495;-75
2022/06/03 08:56:30;;;;;;;7.93;3.55;;;19.50;99.90;;;;;;4971353;28;20512;-75
2022/06/03 08:58:56;;;;;;;6.68;3.50;;;19.60;99.90;;;;;;4989491;28;20038;-76
2022/06/03 09:01:45;;;;;;;5.00;3.40;;;19.70;99.90;;;;;;4974418;28;20057;-77
2022/06/03 09:04:23;;;;;;;6.28;4.03;;;19.80;99.10;;;;;;4988512;28;20042;-76
2022/06/03 09:07:20;;;;;;;5.03;4.22;;;19.90;99.10;;;;;;4970566;28;20041;-76
2022/06/03 09:09:46;;;;;;;16.67;4.50;;;20.00;99.10;;;;;;4973624;28;20038;-74
2022/06/03 09:12:20;;;;;;;6.95;3.63;;;20.00;97.90;;;;;;4972151;28;20476;-73
2022/06/03 09:14:48;;;;;;;4.55;3.05;;;20.10;98.40;;;;;;4987787;28;20100;-73
2022/06/03 09:17:44;;;;;;;9.93;3.70;;;20.20;98.40;;;;;;4987566;28;20136;-74
2022/06/03 09:20:23;;;;;;;6.65;3.70;;;20.30;97.50;;;;;;4972972;28;20042;-76
2022/06/03 09:22:55;;;;;;;6.15;3.42;;;20.40;97.80;;;;;;4988848;28;20089;-77
2022/06/03 09:25:21;;;;;;;7.28;3.42;;;20.60;97.60;;;;;;4973047;28;20084;-74
2022/06/03 09:27:51;;;;;;;9.05;4.28;;;20.60;97.10;;;;;;4986269;28;20038;-73
2022/06/03 09:30:26;;;;;;;5.55;3.10;;;20.60;97.10;;;;;;4971539;28;20092;-74
2022/06/03 09:32:52;;;;;;;7.28;3.03;;;20.60;97.00;;;;;;4970924;28;20042;-77
2022/06/03 09:35:25;;;;;;;5.78;3.45;;;20.70;96.20;;;;;;4972632;28;20450;-77
2022/06/03 09:37:54;;;;;;;6.15;3.22;;;20.70;96.20;;;;;;4967494;28;20033;-79
2022/06/03 09:40:31;;;;;;;7.07;3.20;;;20.80;96.30;;;;;;4970710;28;20157;-77
2022/06/03 09:43:31;;;;;;;7.47;3.30;;;20.90;95.70;;;;;;4966459;28;20495;-77
2022/06/03 09:45:59;;;;;;;5.93;3.70;;;21.00;96.70;;;;;;4956008;28;20050;-80
2022/06/03 09:48:32;;;;;;;4.15;2.60;;;21.20;96.60;;;;;;4968293;28;20440;-79
2022/06/03 09:51:02;;;;;;;5.68;3.25;;;21.30;95.30;;;;;;4987984;28;20045;-75
2022/06/03 09:53:31;;;;;;;5.28;2.80;;;21.30;95.00;;;;;;4970327;28;20042;-81
2022/06/03 09:56:04;;;;;;;5.30;3.53;;;21.30;94.90;;;;;;4971205;28;20081;-80
2022/06/03 09:58:32;;;;;;;6.55;3.00;;;21.40;94.70;;;;;;4965847;28;20546;-77
2022/06/03 10:01:00;;;;;;;14.30;3.08;;;21.40;94.40;;;;;;4984502;28;20046;-80
2022/06/03 10:03:27;;;;;;;8.80;2.85;;;21.50;94.70;;;;;;4970742;28;20048;-77
2022/06/03 10:05:58;;;;;;;5.38;3.00;;;21.60;94.90;;;;;;4970417;28;20495;-81
2022/06/03 10:12:48;;;;;;;4.50;3.10;;;21.70;94.40;;;;;;4999036;28;20126;-78
2022/06/03 10:14:02;;;;;;;4.80;3.00;;;21.80;94.40;;;;;;4983293;28;19925;-80
2022/06/03 10:16:30;;;;;;;7.32;3.22;;;21.80;93.80;;;;;;4971673;28;20041;-80
2022/06/03 10:18:56;;;;;;;7.47;3.40;;;21.90;93.60;;;;;;4983407;28;20514;-85
2022/06/03 10:21:22;;;;;;;5.50;3.17;;;22.00;93.50;;;;;;4986149;28;20042;-80
2022/06/03 10:23:57;;;;;;;5.20;3.30;;;22.10;94.00;;;;;;4970189;28;20117;-79
2022/06/03 10:26:40;;;;;;;3.88;2.95;;;22.20;93.20;;;;;;4966013;28;20441;-78
2022/06/03 10:29:18;;;;;;;4.43;3.15;;;22.20;92.80;;;;;;4972849;28;20109;-81
2022/06/03 10:31:52;;;;;;;4.75;3.08;;;22.30;92.80;;;;;;4999135;28;20038;-80
2022/06/03 10:34:24;;;;;;;5.03;3.15;;;22.30;93.00;;;;;;4987146;28;20042;-78
2022/06/03 10:36:53;;;;;;;3.50;2.70;;;22.40;92.10;;;;;;4985682;28;20495;-82
2022/06/03 10:39:23;;;;;;;4.30;3.20;;;22.40;92.30;;;;;;4986490;28;20064;-80
2022/06/03 10:41:53;;;;;;;6.03;3.60;;;22.30;91.90;;;;;;4970654;28;20042;-81
2022/06/03 10:44:23;;;;;;;5.97;3.08;;;22.40;91.80;;;;;;4971127;28;20046;-80
2022/06/03 10:47:04;;;;;;;6.25;3.67;;;22.40;91.90;;;;;;4971721;28;20100;-81
2022/06/03 10:49:35;;;;;;;7.60;3.45;;;22.60;92.30;;;;;;4972238;28;20034;-80
2022/06/03 11:03:29;;;;;;;5.43;3.00;;;22.60;90.80;;;;;;4987795;28;20045;-77
2022/06/03 11:05:56;;;;;;;3.47;2.80;;;22.60;89.60;;;;;;4965017;28;20181;-76
2022/06/03 11:08:22;;;;;;;6.00;3.15;;;22.70;90.40;;;;;;4985169;28;20044;-78
2022/06/03 11:10:54;;;;;;;5.30;3.35;;;22.60;90.10;;;;;;4986269;28;20068;-78
2022/06/03 11:13:26;;;;;;;;;;;22.80;91.10;;;;;;4986470;28;20049;-79
2022/06/03 11:15:52;;;;;;;4.90;3.20;;;22.90;88.40;;;;;;5002465;28;20028;-78
2022/06/03 11:18:31;;;;;;;3.47;3.05;;;23.00;90.00;;;;;;4955726;28;20149;-79
2022/06/03 11:21:15;;;;;;;9.55;3.15;;;23.10;89.50;;;;;;4970593;28;20076;-76
2022/06/03 11:23:41;;;;;;;3.35;3.03;;;23.00;88.20;;;;;;4970465;28;20045;-78
2022/06/03 11:26:08;;;;;;;5.05;3.15;;;23.00;88.50;;;;;;4938645;28;20054;-77
2022/06/03 11:28:41;;;;;;;3.85;2.72;;;23.20;88.30;;;;;;4986484;28;20088;-76
2022/06/03 11:31:12;;;;;;;3.97;3.53;;;23.20;87.60;;;;;;4968457;28;20108;-76
2022/06/03 11:33:51;;;;;;;3.90;3.15;;;23.20;87.40;;;;;;4992953;28;20041;-77
2022/06/03 11:36:25;;;;;;;5.47;2.90;;;23.20;89.20;;;;;;4979735;28;20069;-76
2022/06/03 11:39:08;;;;;;;3.83;3.00;;;23.20;87.30;;;;;;4983525;28;20058;-78
2022/06/03 11:41:49;;;;;;;5.82;3.55;;;23.30;88.60;;;;;;4981655;28;20674;-81
2022/06/03 11:44:19;;;;;;;5.82;3.40;;;23.40;87.80;;;;;;4988558;28;20042;-78
2022/06/03 11:47:23;;;;;;;5.40;3.10;;;23.40;86.40;;;;;;4985035;28;20045;-77
2022/06/03 11:49:50;;;;;;;3.60;3.13;;;23.50;89.70;;;;;;4948380;28;20066;-83
2022/06/03 11:52:16;;;;;;;6.30;3.00;;;23.50;86.90;;;;;;4951415;28;20041;-78
2022/06/03 11:54:42;;;;;;;3.80;3.15;;;23.60;85.40;;;;;;4973378;28;20041;-78
2022/06/03 11:57:09;;;;;;;3.97;2.85;;;23.60;84.40;;;;;;4990406;28;20499;-78
2022/06/03 11:59:50;;;;;;;16.02;4.93;;;23.50;84.90;;;;;;5000950;28;20474;-78
2022/06/03 12:02:31;;;;;;;6.80;3.55;;;23.70;86.30;;;;;;4973976;28;20125;-79
2022/06/03 12:05:09;;;;;;;3.90;2.95;;;23.60;84.30;;;;;;4986720;28;20045;-79
2022/06/03 12:07:44;;;;;;;5.00;3.20;;;23.70;84.00;;;;;;4980131;28;20101;-82
2022/06/03 12:10:23;;;;;;;5.95;3.08;;;23.60;84.90;;;;;;4970815;28;20120;-78
2022/06/03 12:13:17;;;;;;;3.90;3.00;;;23.80;85.60;;;;;;4988216;28;20030;-79
2022/06/03 12:15:56;;;;;;;4.25;3.30;;;23.70;84.90;;;;;;4991411;28;20042;-79
2022/06/03 12:18:31;;;;;;;5.38;2.70;;;23.80;85.20;;;;;;4975162;28;20042;-79
2022/06/03 12:21:05;;;;;;;5.75;2.70;;;23.90;86.40;;;;;;4983268;28;20034;-79
2022/06/03 12:23:37;;;;;;;5.78;3.08;;;24.10;85.70;;;;;;4985200;28;20053;-78
2022/06/03 12:26:09;;;;;;;3.47;2.85;;;24.10;82.70;;;;;;4990317;28;20503;-80
2022/06/03 12:28:37;;;;;;;5.10;2.83;;;24.00;83.40;;;;;;4994250;28;20648;-80
2022/06/03 12:31:34;;;;;;;4.80;3.05;;;23.90;83.50;;;;;;4976142;28;20514;-86
2022/06/03 12:34:05;;;;;;;6.20;3.08;;;23.90;82.00;;;;;;4975373;28;20034;-81
2022/06/03 12:36:40;;;;;;;10.20;3.33;;;24.00;83.80;;;;;;4987131;28;20120;-80
2022/06/03 12:39:34;;;;;;;20.48;4.10;;;24.10;82.40;;;;;;4974959;28;20081;-84
2022/06/03 12:42:11;;;;;;;6.32;3.03;;;24.10;82.80;;;;;;4963731;28;20527;-81
2022/06/03 12:44:44;;;;;;;3.97;2.85;;;24.30;83.80;;;;;;4965585;28;20492;-84
2022/06/03 12:47:18;;;;;;;12.13;4.00;;;24.40;81.90;;;;;;4948620;28;20638;-83
2022/06/03 12:49:44;;;;;;;28.25;10.18;;;24.30;83.50;;;;;;4941087;28;20039;-83
2022/06/03 12:52:35;;;;;;;22.75;11.02;;;24.40;82.00;;;;;;4951356;28;20420;-82
2022/06/03 12:55:00;;;;;;;3.55;2.70;;;24.20;79.70;;;;;;4952051;28;20081;-82
2022/06/03 12:57:31;;;;;;;4.35;2.80;;;24.20;80.00;;;;;;4952206;28;20124;-77
2022/06/03 13:00:09;;;;;;;5.40;3.20;;;24.20;81.00;;;;;;4949907;28;20104;-79
2022/06/03 13:02:37;;;;;;;4.90;2.83;;;24.30;80.80;;;;;;4965781;28;20046;-82
2022/06/03 13:05:07;;;;;;;3.22;2.83;;;24.30;80.00;;;;;;4956959;28;20030;-81
2022/06/03 13:07:36;;;;;;;4.18;2.65;;;24.40;78.50;;;;;;4958211;28;20046;-82
2022/06/03 13:10:02;;;;;;;5.07;2.75;;;24.40;80.00;;;;;;4952501;28;20039;-79
2022/06/03 13:12:32;;;;;;;2.85;2.50;;;24.30;79.20;;;;;;4947799;28;20053;-77
2022/06/03 13:15:20;;;;;;;3.20;2.70;;;24.20;80.10;;;;;;4950816;28;20149;-77
2022/06/03 13:20:40;;;;;;;4.35;2.72;;;24.40;78.80;;;;;;4991034;28;20049;-76
2022/06/03 13:23:34;;;;;;;3.97;2.55;;;24.30;77.00;;;;;;4986384;28;20050;-76
2022/06/03 13:26:23;;;;;;;4.55;2.72;;;24.30;78.50;;;;;;4970787;28;20263;-73
2022/06/03 13:28:51;;;;;;;4.18;2.30;;;24.30;78.50;;;;;;4969489;28;20241;-77
2022/06/03 13:31:17;;;;;;;2.75;2.40;;;24.20;78.00;;;;;;4969761;28;20342;-73
2022/06/03 13:34:09;;;;;;;3.13;2.63;;;24.30;78.70;;;;;;4983144;28;20042;-75
2022/06/03 13:36:40;;;;;;;6.82;2.67;;;24.30;76.80;;;;;;4961155;28;20053;-77
2022/06/03 13:39:29;;;;;;;3.10;2.78;;;24.30;77.30;;;;;;4979515;28;20046;-79
2022/06/03 13:44:46;;;;;;;3.67;2.50;;;24.50;77.20;;;;;;4984928;28;20702;-85
2022/06/03 13:47:45;;;;;;;3.15;2.72;;;24.50;76.30;;;;;;5003116;28;20104;-79
2022/06/03 13:50:13;;;;;;;3.60;2.58;;;24.50;75.20;;;;;;4995352;28;20040;-79
2022/06/03 13:52:52;;;;;;;3.42;2.40;;;24.30;75.20;;;;;;4991399;28;20034;-79
2022/06/03 13:55:30;;;;;;;2.60;2.25;;;24.20;74.60;;;;;;4982051;28;20061;-80
2022/06/03 13:58:36;;;;;;;5.50;2.60;;;24.20;76.40;;;;;;5002624;28;20114;-82
2022/06/03 14:01:23;;;;;;;3.83;2.60;;;24.10;77.10;;;;;;4939019;28;20146;-78
2022/06/03 14:04:04;;;;;;;3.83;2.50;;;24.10;76.60;;;;;;4980558;28;20050;-80
2022/06/03 14:06:36;;;;;;;4.55;2.38;;;24.10;76.60;;;;;;4990819;28;20057;-78
2022/06/03 14:09:23;;;;;;;4.35;2.53;;;24.20;76.60;;;;;;4988271;28;20038;-76
2022/06/03 14:12:16;;;;;;;4.07;2.53;;;24.30;77.10;;;;;;5003411;28;20030;-78
2022/06/03 14:14:50;;;;;;;3.33;2.40;;;24.30;75.50;;;;;;4986691;28;20069;-78
2022/06/03 14:17:33;;;;;;;2.33;2.10;;;24.30;74.10;;;;;;5014840;28;20048;-80
2022/06/03 14:20:11;;;;;;;4.72;2.65;;;24.20;74.30;;;;;;4999456;28;20348;-83
2022/06/03 14:23:03;;;;;;;3.28;2.20;;;24.30;74.70;;;;;;4988495;28;20499;-73
2022/06/03 14:25:39;;;;;;;3.08;2.10;;;24.30;73.70;;;;;;4992379;28;20104;-76
2022/06/03 14:28:21;;;;;;;3.67;2.25;;;24.20;74.70;;;;;;4993609;28;20038;-79
2022/06/03 14:31:29;;;;;;;7.82;2.30;;;24.10;74.90;;;;;;4994678;28;20347;-86
2022/06/03 14:33:59;;;;;;;4.15;2.28;;;24.10;74.40;;;;;;4996567;28;20042;-89
2022/06/03 14:36:27;;;;;;;14.40;2.90;;;24.20;75.40;;;;;;5009109;28;20034;-83